Drayton Plains, Michigan
Current Conditions -  °F | °C
As of 12:53 AM on Sunday 23 Nov 2014 (Local Time) from KPTK Reporting Station
Overcast Overcast  
Wind Chill: 44°   Ceiling: 2600
Heat Index: 47°   Visibility: 10mi
Dew Point: 41°   Wind: 6mph
Humidity: 80%   Direction: 210°SSW
Pressure: 29.93"   Gusts: NA
Location:  42.68°N, 83.38°W
Report Text: KPTK 230553Z AUTO 21005KT 10SM SCT022 BKN026 OVC036 08/05 A2993 RMK AO2 SLP139 60000 T00830050 10083 20072 53004
Loading
Personal Weather Stations






























Interactive Weather Map New forecast layout! Learn more

10-Day Weather Forecast

Advertisements
Track Severe Weather on mobile